Terminal Aerodrome Forecast
Issued by NWS Twin Cities, MN

Home | Current Version | Previous Version | Graphics & Text | Print | Product List | Glossary On
Versions: 1 2 3 4 5 6 7 8 9 10 11 12 13 14 15 16 17
399
FTUS43 KMPX 191746
TAFEAU
TAF
KEAU 191746Z 1918/2018 03012G23KT 2SM -SN OVC010
      TEMPO 1918/1921 1SM -SN BR
     FM192100 04011KT 4SM -SN OVC010
     FM200600 04008KT 6SM BR VCSH OVC010
     FM201100 05004KT 2SM -PLSN BR OVC009
     FM201500 03005KT 4SM -SN BR OVC015 PROB30 2015/2018 2SM -SN BR=

USA.gov is the U.S. government's official web portal to all federal, state and local government web resources and services.